createdAt,value
2018-05-07T00:02:15.170Z,53.70
2018-05-07T00:04:43.743Z,53.30
2018-05-07T00:07:12.281Z,53.30
2018-05-07T00:09:40.835Z,53.50
2018-05-07T00:12:09.388Z,53.40
2018-05-07T00:14:37.950Z,54.00
2018-05-07T00:17:07.279Z,53.90
2018-05-07T00:19:35.825Z,53.90
2018-05-07T00:22:05.132Z,53.50
2018-05-07T00:24:34.446Z,53.40
2018-05-07T00:27:03.002Z,53.40
2018-05-07T00:29:31.591Z,53.50
2018-05-07T00:32:00.165Z,53.50
2018-05-07T00:34:28.694Z,53.40
2018-05-07T00:36:57.251Z,54.10
2018-05-07T00:39:25.825Z,53.50
2018-05-07T00:41:55.179Z,54.00
2018-05-07T00:44:23.737Z,54.00
2018-05-07T00:46:52.306Z,53.60
2018-05-07T00:49:20.875Z,53.80
2018-05-07T00:51:49.417Z,54.40
2018-05-07T00:54:18.731Z,55.50
2018-05-07T00:56:47.284Z,55.40
2018-05-07T00:59:15.839Z,54.70
2018-05-07T01:01:45.426Z,54.70
2018-05-07T01:04:13.978Z,54.70
2018-05-07T01:06:42.539Z,55.40
2018-05-07T01:09:11.091Z,55.60
2018-05-07T01:11:40.426Z,55.00
2018-05-07T01:14:08.965Z,55.00
2018-05-07T01:16:37.565Z,55.50
2018-05-07T01:19:06.154Z,56.20
2018-05-07T01:21:34.727Z,56.40
2018-05-07T01:24:04.045Z,56.20
2018-05-07T01:26:32.606Z,56.10
2018-05-07T01:29:01.935Z,55.20
2018-05-07T01:31:30.698Z,55.10
2018-05-07T01:34:00.030Z,55.50
2018-05-07T01:36:28.618Z,55.50
2018-05-07T01:38:57.189Z,56.40
2018-05-07T01:41:25.735Z,56.90
2018-05-07T01:43:54.330Z,56.90
2018-05-07T01:46:22.969Z,56.50
2018-05-07T01:48:51.542Z,56.10
2018-05-07T01:51:20.115Z,56.60
2018-05-07T01:53:48.665Z,56.90
2018-05-07T01:56:17.234Z,57.20
2018-05-07T01:58:45.797Z,57.60
2018-05-07T02:01:14.511Z,59.40
2018-05-07T02:03:43.070Z,60.30
2018-05-07T02:06:11.629Z,61.60
2018-05-07T02:08:40.199Z,63.40
2018-05-07T02:11:08.770Z,62.70
2018-05-07T02:13:38.106Z,61.80
2018-05-07T02:16:06.662Z,61.90
2018-05-07T02:18:35.225Z,63.00
2018-05-07T02:21:04.551Z,61.70
2018-05-07T02:23:33.107Z,61.70
2018-05-07T02:26:02.429Z,61.00
2018-05-07T02:28:30.981Z,61.40
2018-05-07T02:30:59.535Z,62.00
2018-05-07T02:33:28.102Z,62.20
2018-05-07T02:35:56.653Z,61.80
2018-05-07T02:38:25.986Z,61.90
2018-05-07T02:40:54.542Z,61.80
2018-05-07T02:43:23.886Z,62.90
2018-05-07T02:45:52.451Z,62.80
2018-05-07T02:48:21.002Z,63.30
2018-05-07T02:50:55.953Z,62.50
2018-05-07T02:53:24.457Z,62.30
2018-05-07T02:55:52.965Z,61.70
2018-05-07T02:58:22.274Z,61.70
2018-05-07T03:00:50.814Z,61.60
2018-05-07T03:03:19.325Z,61.20
2018-05-07T03:05:48.601Z,62.20
2018-05-07T03:08:17.111Z,62.10
2018-05-07T03:10:46.430Z,62.60
2018-05-07T03:13:14.933Z,62.60
2018-05-07T03:15:43.432Z,63.20
2018-05-07T03:18:11.942Z,63.50
2018-05-07T03:20:40.453Z,63.70
2018-05-07T03:23:08.965Z,64.50
2018-05-07T03:25:37.473Z,65.00
2018-05-07T03:28:05.986Z,64.90
2018-05-07T03:30:35.261Z,64.90
2018-05-07T03:33:03.773Z,64.90
2018-05-07T03:35:33.045Z,64.00
2018-05-07T03:38:01.549Z,64.00
2018-05-07T03:40:30.877Z,64.20
2018-05-07T03:43:00.120Z,64.10
2018-05-07T03:45:28.620Z,64.00
2018-05-07T03:47:57.452Z,63.40
2018-05-07T03:50:25.968Z,64.60
2018-05-07T03:52:54.469Z,65.20
2018-05-07T03:55:22.969Z,65.50
2018-05-07T03:57:52.242Z,67.00
2018-05-07T04:00:20.761Z,67.00
2018-05-07T04:02:49.293Z,67.00
2018-05-07T04:05:17.810Z,67.90
2018-05-07T04:07:47.091Z,69.30
2018-05-07T04:10:15.610Z,69.30
2018-05-07T04:12:44.885Z,69.90
2018-05-07T04:15:13.390Z,69.80
2018-05-07T04:17:59.994Z,70.40
2018-05-07T04:20:47.288Z,69.90
2018-05-07T04:23:34.575Z,70.00
2018-05-07T04:26:03.809Z,69.60
2018-05-07T04:28:32.339Z,69.50
2018-05-07T04:31:00.849Z,70.60
2018-05-07T04:33:29.354Z,70.50
2018-05-07T04:35:57.856Z,70.60
2018-05-07T04:38:27.134Z,70.50
2018-05-07T04:40:55.640Z,70.60
2018-05-07T04:43:24.913Z,69.90
2018-05-07T04:45:53.417Z,69.80
2018-05-07T04:48:22.678Z,68.80
2018-05-07T04:50:51.189Z,68.50
2018-05-07T04:53:19.698Z,69.40
2018-05-07T04:55:48.201Z,69.40
2018-05-07T04:58:16.713Z,69.40
2018-05-07T05:00:45.545Z,68.60
2018-05-07T05:03:14.059Z,68.70
2018-05-07T05:05:56.903Z,68.60
2018-05-07T05:08:43.177Z,69.10
2018-05-07T05:11:11.873Z,69.40
2018-05-07T05:13:52.650Z,69.50
2018-05-07T05:16:21.248Z,69.40
2018-05-07T05:18:49.811Z,69.00
2018-05-07T05:21:18.405Z,69.30
2018-05-07T05:23:47.107Z,68.80
2018-05-07T05:26:16.621Z,68.80
2018-05-07T05:28:45.387Z,68.70
2018-05-07T05:31:13.990Z,68.10
2018-05-07T05:33:42.542Z,68.20
2018-05-07T05:36:11.131Z,68.20
2018-05-07T05:38:39.694Z,67.70
2018-05-07T05:41:08.286Z,67.60
2018-05-07T05:43:36.928Z,68.30
2018-05-07T05:46:05.441Z,67.70
2018-05-07T05:48:34.018Z,67.50
2018-05-07T05:51:02.570Z,66.90
2018-05-07T05:53:31.138Z,67.10
2018-05-07T05:55:59.692Z,67.50
2018-05-07T05:58:28.262Z,67.30
2018-05-07T06:00:56.821Z,67.10
2018-05-07T06:03:25.377Z,67.20
2018-05-07T06:05:53.931Z,67.10
2018-05-07T06:08:22.503Z,66.50
2018-05-07T06:10:51.073Z,66.20
2018-05-07T06:13:19.620Z,65.40
2018-05-07T06:15:48.171Z,65.60
2018-05-07T06:18:16.722Z,65.30
2018-05-07T06:20:45.279Z,65.10
2018-05-07T06:23:13.847Z,64.70
2018-05-07T06:25:42.402Z,64.50
2018-05-07T06:28:10.962Z,64.10
2018-05-07T06:30:39.941Z,63.80
2018-05-07T06:33:08.599Z,63.20
2018-05-07T06:35:37.159Z,63.40
2018-05-07T06:38:05.724Z,62.10
2018-05-07T06:40:34.285Z,62.30
2018-05-07T06:43:02.889Z,61.80
2018-05-07T06:45:32.874Z,61.60
2018-05-07T06:48:01.479Z,62.10
2018-05-07T06:50:30.372Z,61.30
2018-05-07T06:52:59.710Z,61.80
2018-05-07T06:55:28.514Z,62.10
2018-05-07T06:57:57.063Z,61.30
2018-05-07T07:00:25.647Z,61.90
2018-05-07T07:02:54.289Z,62.40
2018-05-07T07:05:22.910Z,61.90
2018-05-07T07:07:51.551Z,61.60
2018-05-07T07:10:20.886Z,60.90
2018-05-07T07:12:50.083Z,60.80
2018-05-07T07:15:18.868Z,59.50
2018-05-07T07:17:47.503Z,60.20
2018-05-07T07:22:33.297Z,59.40
2018-05-07T07:25:01.820Z,60.80
2018-05-07T07:27:30.528Z,60.00
2018-05-07T07:29:59.110Z,59.60
2018-05-07T07:32:27.639Z,59.70
2018-05-07T07:34:56.142Z,58.70
2018-05-07T07:37:25.415Z,60.60
2018-05-07T07:39:53.913Z,60.50
2018-05-07T07:42:22.425Z,58.70
2018-05-07T07:44:50.926Z,58.90
2018-05-07T07:47:19.454Z,58.70
2018-05-07T07:49:47.995Z,58.20
2018-05-07T07:52:16.505Z,57.80
2018-05-07T07:54:45.009Z,59.10
2018-05-07T07:57:13.513Z,58.20
2018-05-07T07:59:42.781Z,57.10
2018-05-07T08:02:11.327Z,57.10
2018-05-07T08:04:39.829Z,57.00
2018-05-07T08:07:08.365Z,56.10
2018-05-07T08:09:36.906Z,56.20
2018-05-07T08:12:05.514Z,56.40
2018-05-07T08:14:34.049Z,57.00
2018-05-07T08:17:02.609Z,55.70
2018-05-07T08:19:31.168Z,58.20
2018-05-07T08:22:00.519Z,56.30
2018-05-07T08:24:29.087Z,56.00
2018-05-07T08:26:57.666Z,54.60
2018-05-07T08:29:26.235Z,54.30
2018-05-07T08:31:54.783Z,56.60
2018-05-07T08:34:23.337Z,55.50
2018-05-07T08:36:51.884Z,53.70
2018-05-07T08:39:20.449Z,54.40
2018-05-07T08:41:49.067Z,53.20
2018-05-07T08:44:17.613Z,53.00
2018-05-07T08:46:46.958Z,52.20
2018-05-07T08:49:15.512Z,52.20
2018-05-07T08:51:44.076Z,54.10
2018-05-07T08:54:13.432Z,55.50
2018-05-07T08:56:42.019Z,55.20
2018-05-07T08:59:10.587Z,54.50
2018-05-07T09:01:39.140Z,53.10
2018-05-07T09:04:07.713Z,53.30
2018-05-07T09:06:37.019Z,51.80
2018-05-07T09:09:06.435Z,50.60
2018-05-07T09:11:34.983Z,50.40
2018-05-07T09:14:03.537Z,50.20
2018-05-07T09:16:32.104Z,50.20
2018-05-07T09:19:00.655Z,50.30
2018-05-07T09:21:29.973Z,50.40
2018-05-07T09:23:58.536Z,50.30
2018-05-07T09:26:27.842Z,50.20
2018-05-07T09:28:57.181Z,53.90
2018-05-07T09:31:25.790Z,53.90
2018-05-07T09:33:54.342Z,49.50
2018-05-07T09:36:22.894Z,53.00
2018-05-07T09:38:52.218Z,51.50
2018-05-07T09:41:20.778Z,51.70
2018-05-07T09:43:50.095Z,50.30
2018-05-07T09:46:18.666Z,50.30
2018-05-07T09:48:47.999Z,49.20
2018-05-07T09:51:16.550Z,49.80
2018-05-07T09:53:45.874Z,50.70
2018-05-07T09:56:14.430Z,50.60
2018-05-07T09:58:55.805Z,48.60
2018-05-07T10:01:24.357Z,48.70
2018-05-07T10:03:52.934Z,49.60
2018-05-07T10:06:22.286Z,47.70
2018-05-07T10:08:51.611Z,48.40
2018-05-07T10:11:20.174Z,48.40
2018-05-07T10:13:49.481Z,49.90
2018-05-07T10:16:18.039Z,49.80
2018-05-07T10:18:46.590Z,51.00
2018-05-07T10:21:15.153Z,50.30
2018-05-07T10:23:43.710Z,46.30
2018-05-07T10:26:13.039Z,47.70
2018-05-07T10:28:41.611Z,47.70
2018-05-07T10:31:10.171Z,45.70
2018-05-07T10:33:39.497Z,45.60
2018-05-07T10:36:08.043Z,45.60
2018-05-07T10:38:36.615Z,46.30
2018-05-07T10:41:05.165Z,46.40
2018-05-07T10:43:33.726Z,47.50
2018-05-07T10:46:02.283Z,46.20
2018-05-07T10:48:31.806Z,45.30
2018-05-07T10:51:00.360Z,44.70
2018-05-07T10:53:28.919Z,45.70
2018-05-07T10:55:58.297Z,45.50
2018-05-07T10:58:26.869Z,45.40
2018-05-07T11:00:55.415Z,44.20
2018-05-07T11:03:23.951Z,43.80
2018-05-07T11:05:52.514Z,44.20
2018-05-07T11:08:21.066Z,43.30
2018-05-07T11:10:49.627Z,42.80
2018-05-07T11:13:18.978Z,44.40
2018-05-07T11:15:47.529Z,44.40
2018-05-07T11:18:16.093Z,43.70
2018-05-07T11:20:44.666Z,43.60
2018-05-07T11:25:30.925Z,44.30
2018-05-07T11:28:00.197Z,46.80
2018-05-07T11:30:28.715Z,46.00
2018-05-07T11:32:57.981Z,44.30
2018-05-07T11:35:26.490Z,44.30
2018-05-07T11:37:55.757Z,45.80
2018-05-07T11:40:24.260Z,45.70
2018-05-07T11:42:52.767Z,43.40
2018-05-07T11:45:22.057Z,44.70
2018-05-07T11:47:51.332Z,44.80
2018-05-07T11:50:19.843Z,44.70
2018-05-07T11:52:49.120Z,45.10
2018-05-07T11:55:17.661Z,45.10
2018-05-07T11:57:46.207Z,45.10
2018-05-07T12:00:15.477Z,43.60
2018-05-07T12:02:44.014Z,43.60
2018-05-07T12:05:12.521Z,42.30
2018-05-07T12:07:41.035Z,42.60
2018-05-07T12:10:09.560Z,42.60
2018-05-07T12:12:38.081Z,42.50
2018-05-07T12:15:06.595Z,43.40
2018-05-07T12:17:35.891Z,41.90
2018-05-07T12:20:05.459Z,41.80
2018-05-07T12:22:36.382Z,42.60
2018-05-07T12:25:05.008Z,42.50
2018-05-07T12:27:33.545Z,42.00
2018-05-07T12:30:02.109Z,41.80
2018-05-07T12:35:25.814Z,42.20
2018-05-07T12:37:54.331Z,41.80
2018-05-07T12:40:22.833Z,42.70
2018-05-07T12:42:51.337Z,41.60
2018-05-07T12:45:19.837Z,41.70
2018-05-07T12:47:48.349Z,41.30
2018-05-07T12:50:18.854Z,40.30
2018-05-07T12:52:47.419Z,39.80
2018-05-07T12:55:15.970Z,39.90
2018-05-07T12:57:44.555Z,40.30
2018-05-07T13:00:13.134Z,40.70
2018-05-07T13:02:41.722Z,44.20
2018-05-07T13:05:10.315Z,41.80
2018-05-07T13:07:38.892Z,38.70
2018-05-07T13:10:07.471Z,39.40
2018-05-07T13:12:36.056Z,38.90
2018-05-07T13:15:04.646Z,42.60
2018-05-07T13:17:34.010Z,39.20
2018-05-07T13:20:02.590Z,39.20
2018-05-07T13:22:31.180Z,41.50
2018-05-07T13:24:59.761Z,39.00
2018-05-07T13:27:28.391Z,39.10
2018-05-07T13:29:56.957Z,37.90
2018-05-07T13:32:25.539Z,39.00
2018-05-07T13:34:54.114Z,39.20
2018-05-07T13:37:22.698Z,38.20
2018-05-07T13:39:51.247Z,38.50
2018-05-07T13:42:20.581Z,38.70
2018-05-07T13:44:49.135Z,38.40
2018-05-07T13:47:17.718Z,40.50
2018-05-07T13:49:47.072Z,40.70
2018-05-07T13:52:15.654Z,40.10
2018-05-07T13:54:44.238Z,38.10
2018-05-07T13:57:12.853Z,36.80
2018-05-07T13:59:41.419Z,37.40
2018-05-07T14:02:10.000Z,37.90
2018-05-07T14:04:38.565Z,37.20
2018-05-07T14:07:07.130Z,36.00
2018-05-07T14:09:35.675Z,36.20
2018-05-07T14:12:04.209Z,36.70
2018-05-07T14:14:32.821Z,40.00
2018-05-07T14:17:02.042Z,37.70
2018-05-07T14:19:30.580Z,37.50
2018-05-07T14:21:59.179Z,35.80
2018-05-07T14:24:27.755Z,36.10
2018-05-07T14:26:56.313Z,35.40
2018-05-07T14:29:24.884Z,35.20
2018-05-07T14:31:54.206Z,35.40
2018-05-07T14:34:22.769Z,35.30
2018-05-07T14:36:52.119Z,34.30
2018-05-07T14:39:20.684Z,34.20
2018-05-07T14:41:49.249Z,35.20
2018-05-07T14:44:17.813Z,35.00
2018-05-07T14:46:47.155Z,35.00
2018-05-07T14:49:15.713Z,35.00
2018-05-07T14:51:44.264Z,35.20
2018-05-07T14:54:12.796Z,36.30
2018-05-07T14:56:41.342Z,35.60
2018-05-07T14:59:09.885Z,35.10
2018-05-07T15:01:39.187Z,34.40
2018-05-07T15:04:07.727Z,34.40
2018-05-07T15:06:36.252Z,35.30
2018-05-07T15:09:05.805Z,35.10
2018-05-07T15:11:34.317Z,35.40
2018-05-07T15:14:20.859Z,32.80
2018-05-07T15:16:49.375Z,33.10
2018-05-07T15:19:18.704Z,33.00
2018-05-07T15:21:47.246Z,32.90
2018-05-07T15:24:15.802Z,32.50
2018-05-07T15:26:44.361Z,32.60
2018-05-07T15:29:12.980Z,32.80
2018-05-07T15:31:41.450Z,33.20
2018-05-07T15:34:10.013Z,32.80
2018-05-07T15:36:38.545Z,33.80
2018-05-07T15:39:07.077Z,33.50
2018-05-07T15:41:35.618Z,33.20
2018-05-07T15:44:04.181Z,33.00
2018-05-07T15:46:32.746Z,33.70
2018-05-07T15:49:01.298Z,33.50
2018-05-07T15:51:29.849Z,32.30
2018-05-07T15:53:59.167Z,35.10
2018-05-07T15:56:28.498Z,33.60
2018-05-07T15:58:57.028Z,33.70
2018-05-07T16:01:25.553Z,32.00
2018-05-07T16:03:54.070Z,33.50
2018-05-07T16:06:22.623Z,33.60
2018-05-07T16:08:51.214Z,33.50
2018-05-07T16:11:19.779Z,32.40
2018-05-07T16:13:48.296Z,32.90
2018-05-07T16:16:16.829Z,32.70
2018-05-07T16:18:46.191Z,33.00
2018-05-07T16:21:14.654Z,33.00
2018-05-07T16:23:43.166Z,32.90
2018-05-07T16:26:11.672Z,33.10
2018-05-07T16:28:40.986Z,33.00
2018-05-07T16:31:09.523Z,32.90
2018-05-07T16:33:48.229Z,33.40
2018-05-07T16:36:20.840Z,33.50
2018-05-07T16:38:50.143Z,32.90
2018-05-07T16:41:18.652Z,32.80
2018-05-07T16:43:47.165Z,32.70
2018-05-07T16:46:15.670Z,33.00
2018-05-07T16:48:44.221Z,34.00
2018-05-07T16:51:12.737Z,34.20
2018-05-07T16:53:41.237Z,33.50
2018-05-07T16:56:09.745Z,33.80
2018-05-07T16:58:38.250Z,33.70
2018-05-07T17:01:06.766Z,33.60
2018-05-07T17:03:35.304Z,34.00
2018-05-07T17:06:03.858Z,34.20
2018-05-07T17:08:33.141Z,34.90
2018-05-07T17:11:01.655Z,34.70
2018-05-07T17:13:30.934Z,32.90
2018-05-07T17:15:59.446Z,32.80
2018-05-07T17:18:27.962Z,33.60
2018-05-07T17:20:56.478Z,33.10
2018-05-07T17:23:25.187Z,33.90
2018-05-07T17:25:53.522Z,34.70
2018-05-07T17:28:22.035Z,33.50
2018-05-07T17:30:50.538Z,36.00
2018-05-07T17:33:19.042Z,36.20
2018-05-07T17:35:47.546Z,34.10
2018-05-07T17:38:16.062Z,34.10
2018-05-07T17:40:45.341Z,34.20
2018-05-07T17:43:13.862Z,34.10
2018-05-07T17:46:02.767Z,35.70
2018-05-07T17:48:49.277Z,35.60
2018-05-07T17:51:17.827Z,35.60
2018-05-07T17:53:46.368Z,36.80
2018-05-07T17:56:14.898Z,44.40
2018-05-07T17:58:43.407Z,43.10
2018-05-07T18:01:11.923Z,43.10
2018-05-07T18:03:40.426Z,36.90
2018-05-07T18:06:08.933Z,40.70
2018-05-07T18:08:37.437Z,37.70
2018-05-07T18:11:05.941Z,37.70
2018-05-07T18:13:34.458Z,42.60
2018-05-07T18:16:03.002Z,40.60
2018-05-07T18:18:31.522Z,43.50
2018-05-07T18:21:00.070Z,42.20
2018-05-07T18:23:28.583Z,40.50
2018-05-07T18:25:57.853Z,42.30
2018-05-07T18:28:26.361Z,42.20
2018-05-07T18:30:55.633Z,48.00
2018-05-07T18:33:24.158Z,48.10
2018-05-07T18:35:52.663Z,47.80
2018-05-07T18:38:21.181Z,47.40
2018-05-07T18:40:49.697Z,49.10
2018-05-07T18:43:18.221Z,52.20
2018-05-07T18:45:46.733Z,45.30
2018-05-07T18:48:15.250Z,52.60
2018-05-07T18:50:43.757Z,50.90
2018-05-07T18:53:12.275Z,50.00
2018-05-07T18:55:40.786Z,50.50
2018-05-07T18:58:09.302Z,51.50
2018-05-07T19:00:37.958Z,51.70
2018-05-07T19:03:06.466Z,52.50
2018-05-07T19:05:34.991Z,55.50
2018-05-07T19:08:03.498Z,54.70
2018-05-07T19:10:32.781Z,54.30
2018-05-07T19:13:01.298Z,54.20
2018-05-07T19:15:29.841Z,54.20
2018-05-07T19:17:58.355Z,56.00
2018-05-07T19:20:26.866Z,58.50
2018-05-07T19:22:55.388Z,57.30
2018-05-07T19:25:23.925Z,58.40
2018-05-07T19:27:52.455Z,58.90
2018-05-07T19:30:21.137Z,62.20
2018-05-07T19:32:49.657Z,61.90
2018-05-07T19:35:18.538Z,59.40
2018-05-07T19:37:47.072Z,60.60
2018-05-07T19:40:15.585Z,60.50
2018-05-07T19:42:44.085Z,61.50
2018-05-07T19:45:13.361Z,62.70
2018-05-07T19:47:41.874Z,62.50
2018-05-07T19:50:10.430Z,62.80
2018-05-07T19:52:38.942Z,62.90
2018-05-07T19:55:07.450Z,62.00
2018-05-07T19:57:35.954Z,65.10
2018-05-07T20:00:04.593Z,67.40
2018-05-07T20:02:33.111Z,67.80
2018-05-07T20:05:01.618Z,68.40
2018-05-07T20:07:30.126Z,69.80
2018-05-07T20:09:59.401Z,70.10
2018-05-07T20:12:27.976Z,70.20
2018-05-07T20:14:56.465Z,69.40
2018-05-07T20:17:24.973Z,69.00
2018-05-07T20:19:54.317Z,65.80
2018-05-07T20:22:22.787Z,65.70
2018-05-07T20:24:51.297Z,66.80
2018-05-07T20:27:19.804Z,62.40
2018-05-07T20:29:48.310Z,64.60
2018-05-07T20:32:16.823Z,62.00
2018-05-07T20:34:45.341Z,58.40
2018-05-07T20:37:13.845Z,56.60
2018-05-07T20:39:43.122Z,56.50
2018-05-07T20:42:11.625Z,56.50
2018-05-07T20:44:40.941Z,56.50
2018-05-07T20:47:09.502Z,56.40
2018-05-07T20:49:37.986Z,56.80
2018-05-07T20:52:07.277Z,56.90
2018-05-07T20:54:35.785Z,56.80
2018-05-07T20:57:05.061Z,57.00
2018-05-07T20:59:33.574Z,57.00
2018-05-07T21:02:02.077Z,57.20
2018-05-07T21:04:30.585Z,57.20
2018-05-07T21:06:59.086Z,57.20
2018-05-07T21:09:27.593Z,57.30
2018-05-07T21:11:56.869Z,57.30
2018-05-07T21:14:25.399Z,57.30
2018-05-07T21:16:53.902Z,57.10
2018-05-07T21:19:22.411Z,57.30
2018-05-07T21:21:50.923Z,57.20
2018-05-07T21:24:20.192Z,57.10
2018-05-07T21:26:48.697Z,57.10
2018-05-07T21:29:17.970Z,57.40
2018-05-07T21:31:46.478Z,57.40
2018-05-07T21:34:15.758Z,56.90
2018-05-07T21:36:44.262Z,56.90
2018-05-07T21:39:13.535Z,55.30
2018-05-07T21:41:42.042Z,55.20
2018-05-07T21:44:11.320Z,54.00
2018-05-07T21:46:39.833Z,53.90
2018-05-07T21:49:09.106Z,53.20
2018-05-07T21:51:37.623Z,53.10
2018-05-07T21:54:06.130Z,52.50
2018-05-07T21:56:34.637Z,52.50
2018-05-07T21:59:03.142Z,52.50
2018-05-07T22:01:31.651Z,52.80
2018-05-07T22:04:00.158Z,53.00
2018-05-07T22:06:28.668Z,53.50
2018-05-07T22:08:57.179Z,53.20
2018-05-07T22:11:26.455Z,53.80
2018-05-07T22:13:54.959Z,53.70
2018-05-07T22:16:24.229Z,54.40
2018-05-07T22:18:52.779Z,53.70
2018-05-07T22:21:21.299Z,53.70
2018-05-07T22:23:50.573Z,53.70
2018-05-07T22:26:19.077Z,53.80
2018-05-07T22:28:47.583Z,53.90
2018-05-07T22:31:16.091Z,54.00
2018-05-07T22:33:44.594Z,53.90
2018-05-07T22:36:13.101Z,54.00
2018-05-07T22:38:41.605Z,53.90
2018-05-07T22:41:10.127Z,54.10
2018-05-07T22:43:38.646Z,54.40
2018-05-07T22:46:07.215Z,54.30
2018-05-07T22:48:35.722Z,54.40
2018-05-07T22:51:04.230Z,54.80
2018-05-07T22:53:33.530Z,55.50
2018-05-07T22:56:02.801Z,55.70
2018-05-07T22:58:31.310Z,55.60
2018-05-07T23:00:59.822Z,56.00
2018-05-07T23:03:28.336Z,56.40
2018-05-07T23:05:56.846Z,56.50
2018-05-07T23:08:25.358Z,56.50
2018-05-07T23:10:54.629Z,56.80
2018-05-07T23:13:23.136Z,56.80
2018-05-07T23:15:51.690Z,57.00
2018-05-07T23:18:20.202Z,57.00
2018-05-07T23:20:49.474Z,57.60
2018-05-07T23:23:17.978Z,57.60
2018-05-07T23:25:47.254Z,57.70
2018-05-07T23:28:15.762Z,57.70
2018-05-07T23:30:45.032Z,58.20
2018-05-07T23:33:13.538Z,58.20
2018-05-07T23:35:42.810Z,59.00
2018-05-07T23:38:11.314Z,58.40
2018-05-07T23:40:40.591Z,58.60
2018-05-07T23:43:09.097Z,58.30
2018-05-07T23:45:38.445Z,58.30
2018-05-07T23:48:06.952Z,58.30
2018-05-07T23:50:35.455Z,58.30
2018-05-07T23:53:03.963Z,58.00
2018-05-07T23:55:33.237Z,58.10
2018-05-07T23:58:01.750Z,58.10
